createdAt,value
2022-08-23T00:02:22.920Z,18.65
2022-08-23T00:05:07.932Z,18.47
2022-08-23T00:07:39.473Z,18.28
2022-08-23T00:10:10.041Z,18.36
2022-08-23T00:12:37.874Z,18.17
2022-08-23T00:15:09.684Z,18.13
2022-08-23T00:17:37.038Z,18.27
2022-08-23T00:20:11.783Z,18.14
2022-08-23T00:22:40.042Z,18.03
2022-08-23T00:25:10.439Z,18.23
2022-08-23T00:27:38.250Z,18.32
2022-08-23T00:30:10.846Z,18.27
2022-08-23T00:32:39.745Z,18.32
2022-08-23T00:35:09.466Z,18.71
2022-08-23T00:37:38.035Z,18.69
2022-08-23T00:40:09.181Z,18.52
2022-08-23T00:43:09.559Z,18.31
2022-08-23T00:46:02.839Z,17.77
2022-08-23T00:48:30.714Z,17.65
2022-08-23T00:51:18.246Z,17.95
2022-08-23T00:53:53.940Z,17.86
2022-08-23T00:56:24.805Z,17.56
2022-08-23T00:58:53.594Z,17.60
2022-08-23T01:01:20.694Z,17.70
2022-08-23T01:04:04.494Z,17.72
2022-08-23T01:06:44.811Z,17.68
2022-08-23T01:09:17.796Z,17.77
2022-08-23T01:12:33.095Z,17.74
2022-08-23T01:15:20.280Z,17.71
2022-08-23T01:18:02.635Z,17.74
2022-08-23T01:20:39.108Z,17.80
2022-08-23T01:23:38.141Z,17.82
2022-08-23T01:26:06.519Z,17.69
2022-08-23T01:28:34.375Z,17.51
2022-08-23T01:31:02.579Z,17.48
2022-08-23T01:33:35.190Z,17.46
2022-08-23T01:36:04.305Z,17.32
2022-08-23T01:38:37.795Z,17.20
2022-08-23T01:41:06.878Z,17.14
2022-08-23T01:43:34.179Z,17.31
2022-08-23T01:46:11.089Z,17.05
2022-08-23T01:48:38.508Z,16.92
2022-08-23T01:51:06.056Z,17.01
2022-08-23T01:53:33.908Z,17.16
2022-08-23T01:56:03.764Z,17.18
2022-08-23T01:58:33.178Z,17.13
2022-08-23T02:01:02.009Z,17.25
2022-08-23T02:03:29.275Z,17.12
2022-08-23T02:05:57.717Z,17.02
2022-08-23T02:08:43.896Z,16.62
2022-08-23T02:11:15.663Z,16.25
2022-08-23T02:13:44.197Z,16.09
2022-08-23T02:16:14.822Z,16.06
2022-08-23T02:18:44.085Z,16.17
2022-08-23T02:21:11.002Z,16.44
2022-08-23T02:23:37.908Z,16.52
2022-08-23T02:26:07.079Z,16.72
2022-08-23T02:28:34.076Z,16.72
2022-08-23T02:31:01.207Z,16.50
2022-08-23T02:33:29.578Z,16.41
2022-08-23T02:35:56.641Z,16.56
2022-08-23T02:38:23.790Z,16.97
2022-08-23T02:40:53.052Z,16.97
2022-08-23T02:43:28.070Z,17.07
2022-08-23T02:45:55.099Z,17.21
2022-08-23T02:48:22.498Z,17.05
2022-08-23T02:50:49.928Z,17.01
2022-08-23T02:53:17.763Z,17.06
2022-08-23T02:55:48.262Z,17.12
2022-08-23T02:58:15.226Z,17.12
2022-08-23T03:00:47.080Z,17.06
2022-08-23T03:03:17.700Z,17.12
2022-08-23T03:05:45.504Z,17.00
2022-08-23T03:08:13.096Z,16.76
2022-08-23T03:10:45.600Z,16.62
2022-08-23T03:13:12.531Z,16.59
2022-08-23T03:15:40.948Z,16.52
2022-08-23T03:18:09.206Z,16.51
2022-08-23T03:20:36.407Z,16.78
2022-08-23T03:23:03.718Z,16.62
2022-08-23T03:25:30.839Z,16.14
2022-08-23T03:27:58.185Z,16.02
2022-08-23T03:30:25.261Z,16.15
2022-08-23T03:32:52.297Z,16.42
2022-08-23T03:35:19.387Z,16.66
2022-08-23T03:37:46.477Z,16.68
2022-08-23T03:40:14.029Z,16.48
2022-08-23T03:42:41.039Z,16.23
2022-08-23T03:45:08.449Z,16.01
2022-08-23T03:47:35.687Z,16.08
2022-08-23T03:50:02.613Z,16.01
2022-08-23T03:52:30.094Z,16.14
2022-08-23T03:54:57.412Z,15.90
2022-08-23T03:57:24.396Z,15.63
2022-08-23T03:59:51.426Z,15.69
2022-08-23T04:02:18.517Z,15.80
2022-08-23T04:04:45.544Z,15.97
2022-08-23T04:07:12.594Z,16.07
2022-08-23T04:09:39.522Z,15.86
2022-08-23T04:12:17.593Z,15.78
2022-08-23T04:14:45.731Z,15.68
2022-08-23T04:17:16.558Z,15.54
2022-08-23T04:19:43.861Z,15.24
2022-08-23T04:22:14.989Z,15.42
2022-08-23T04:24:42.848Z,15.51
2022-08-23T04:27:10.514Z,15.81
2022-08-23T04:29:39.973Z,15.72
2022-08-23T04:32:11.544Z,15.51
2022-08-23T04:34:45.790Z,15.48
2022-08-23T04:37:18.667Z,15.57
2022-08-23T04:40:04.500Z,15.62
2022-08-23T04:42:31.652Z,15.69
2022-08-23T04:44:58.712Z,15.64
2022-08-23T04:47:25.669Z,15.69
2022-08-23T04:49:52.615Z,15.61
2022-08-23T04:52:20.794Z,15.67
2022-08-23T04:54:47.854Z,15.75
2022-08-23T04:57:15.507Z,15.84
2022-08-23T04:59:43.912Z,16.03
2022-08-23T05:02:10.858Z,15.80
2022-08-23T05:04:37.797Z,15.75
2022-08-23T05:07:04.902Z,15.95
2022-08-23T05:09:32.010Z,16.14
2022-08-23T05:11:58.979Z,16.17
2022-08-23T05:14:26.147Z,16.40
2022-08-23T05:16:53.120Z,16.71
2022-08-23T05:19:20.460Z,16.92
2022-08-23T05:21:47.573Z,17.27
2022-08-23T05:24:14.768Z,16.92
2022-08-23T05:26:41.999Z,16.80
2022-08-23T05:29:09.335Z,17.07
2022-08-23T05:31:36.292Z,17.28
2022-08-23T05:34:03.769Z,17.17
2022-08-23T05:36:31.231Z,17.38
2022-08-23T05:38:58.587Z,17.74
2022-08-23T05:41:33.382Z,17.92
2022-08-23T05:44:05.119Z,17.51
2022-08-23T05:46:32.651Z,17.55
2022-08-23T05:48:59.668Z,17.62
2022-08-23T05:51:30.573Z,17.88
2022-08-23T05:54:04.950Z,18.25
2022-08-23T05:56:39.404Z,18.42
2022-08-23T05:59:12.702Z,18.50
2022-08-23T06:01:41.378Z,18.72
2022-08-23T06:04:12.581Z,18.75
2022-08-23T06:06:42.093Z,18.94
2022-08-23T06:09:13.225Z,19.06
2022-08-23T06:11:46.023Z,19.18
2022-08-23T06:14:13.433Z,19.16
2022-08-23T06:16:44.363Z,19.19
2022-08-23T06:19:12.012Z,19.55
2022-08-23T06:21:40.022Z,19.70
2022-08-23T06:24:07.316Z,19.84
2022-08-23T06:26:39.304Z,20.11
2022-08-23T06:29:12.206Z,20.14
2022-08-23T06:31:45.507Z,20.31
2022-08-23T06:34:25.418Z,20.87
2022-08-23T06:36:56.533Z,20.98
2022-08-23T06:39:28.431Z,21.20
2022-08-23T06:42:22.265Z,21.23
2022-08-23T06:44:53.870Z,21.36
2022-08-23T06:47:23.166Z,21.62
2022-08-23T06:49:57.917Z,21.56
2022-08-23T06:52:27.512Z,21.81
2022-08-23T06:54:55.059Z,21.99
2022-08-23T06:57:22.338Z,22.05
2022-08-23T06:59:50.122Z,22.16
2022-08-23T07:02:17.413Z,22.21
2022-08-23T07:04:44.870Z,22.33
2022-08-23T07:07:12.571Z,22.17
2022-08-23T07:09:40.699Z,22.06
2022-08-23T07:12:08.116Z,22.20
2022-08-23T07:14:36.994Z,22.28
2022-08-23T07:17:04.777Z,22.39
2022-08-23T07:19:34.512Z,22.62
2022-08-23T07:22:03.446Z,22.79
2022-08-23T07:24:33.491Z,22.75
2022-08-23T07:27:07.241Z,22.80
2022-08-23T07:29:37.423Z,22.94
2022-08-23T07:32:05.107Z,23.08
2022-08-23T07:34:32.609Z,23.24
2022-08-23T07:37:01.196Z,23.27
2022-08-23T07:39:29.600Z,23.27
2022-08-23T07:42:00.525Z,23.42
2022-08-23T07:44:28.176Z,23.42
2022-08-23T07:46:55.402Z,23.36
2022-08-23T07:49:23.055Z,23.39
2022-08-23T07:51:58.759Z,23.25
2022-08-23T07:54:27.904Z,23.53
2022-08-23T07:56:55.281Z,23.59
2022-08-23T07:59:22.282Z,23.59
2022-08-23T08:01:49.456Z,23.74
2022-08-23T08:04:16.577Z,23.66
2022-08-23T08:06:59.882Z,24.12
2022-08-23T08:09:27.135Z,24.01
2022-08-23T08:11:54.320Z,24.10
2022-08-23T08:14:21.414Z,24.42
2022-08-23T08:16:50.862Z,24.58
2022-08-23T08:19:19.805Z,25.01
2022-08-23T08:21:48.557Z,25.10
2022-08-23T08:24:18.149Z,25.15
2022-08-23T08:26:46.141Z,25.14
2022-08-23T08:29:14.334Z,25.31
2022-08-23T08:31:44.176Z,25.62
2022-08-23T08:34:12.412Z,25.39
2022-08-23T08:36:50.338Z,25.45
2022-08-23T08:39:25.131Z,25.41
2022-08-23T08:42:27.639Z,25.62
2022-08-23T08:45:01.292Z,25.53
2022-08-23T08:47:54.535Z,25.89
2022-08-23T08:50:27.938Z,25.80
2022-08-23T08:53:02.387Z,25.99
2022-08-23T08:55:38.750Z,26.29
2022-08-23T08:58:07.318Z,26.31
2022-08-23T09:00:38.755Z,26.55
2022-08-23T09:03:14.372Z,26.71
2022-08-23T09:05:59.990Z,26.67
2022-08-23T09:08:48.498Z,27.01
2022-08-23T09:11:40.313Z,26.93
2022-08-23T09:14:30.428Z,27.21
2022-08-23T09:17:05.919Z,27.33
2022-08-23T09:19:37.487Z,27.55
2022-08-23T09:22:13.409Z,27.83
2022-08-23T09:24:41.480Z,28.14
2022-08-23T09:27:10.595Z,28.49
2022-08-23T09:29:41.791Z,28.51
2022-08-23T09:32:33.828Z,28.48
2022-08-23T09:35:24.239Z,28.80
2022-08-23T09:38:02.249Z,28.46
2022-08-23T09:40:41.547Z,28.63
2022-08-23T09:43:16.127Z,28.95
2022-08-23T09:46:01.090Z,29.17
2022-08-23T09:48:39.942Z,29.00
2022-08-23T09:51:31.263Z,28.99
2022-08-23T09:54:12.909Z,29.36
2022-08-23T09:56:46.942Z,29.60
2022-08-23T09:59:22.277Z,29.75
2022-08-23T10:02:00.308Z,29.99
2022-08-23T10:04:47.304Z,30.21
2022-08-23T10:07:34.934Z,30.18
2022-08-23T10:10:35.839Z,30.10
2022-08-23T10:13:05.387Z,30.05
2022-08-23T10:15:58.761Z,30.14
2022-08-23T10:19:00.755Z,30.65
2022-08-23T10:22:16.814Z,31.08
2022-08-23T10:25:02.665Z,31.50
2022-08-23T10:28:14.308Z,31.23
2022-08-23T10:31:23.141Z,31.29
2022-08-23T10:34:24.327Z,31.34
2022-08-23T10:37:12.404Z,31.46
2022-08-23T10:40:30.425Z,31.59
2022-08-23T10:43:35.097Z,30.55
2022-08-23T10:46:03.014Z,30.55
2022-08-23T10:48:37.021Z,29.99
2022-08-23T10:51:33.412Z,30.29
2022-08-23T10:54:35.907Z,30.59
2022-08-23T10:57:04.883Z,30.62
2022-08-23T10:59:32.800Z,30.46
2022-08-23T11:02:25.769Z,30.85
2022-08-23T11:05:02.748Z,30.75
2022-08-23T11:07:37.446Z,31.00
2022-08-23T11:10:17.621Z,31.47
2022-08-23T11:13:08.514Z,31.65
2022-08-23T11:15:58.495Z,30.68
2022-08-23T11:18:41.978Z,31.23
2022-08-23T11:21:18.133Z,31.45
2022-08-23T11:23:54.293Z,31.19
2022-08-23T11:26:27.518Z,30.67
2022-08-23T11:29:21.315Z,31.06
2022-08-23T11:32:32.818Z,31.12
2022-08-23T11:35:27.444Z,31.29
2022-08-23T11:38:05.398Z,30.77
2022-08-23T11:40:50.854Z,30.73
2022-08-23T11:43:39.619Z,30.89
2022-08-23T11:46:28.413Z,31.24
2022-08-23T11:49:26.112Z,31.14
2022-08-23T11:52:16.434Z,31.45
2022-08-23T11:55:19.834Z,32.18
2022-08-23T11:58:21.034Z,32.62
2022-08-23T12:01:11.476Z,32.33
2022-08-23T12:04:10.493Z,32.10
2022-08-23T12:06:51.254Z,32.33
2022-08-23T12:09:24.329Z,32.69
2022-08-23T12:11:57.278Z,31.92
2022-08-23T12:14:42.831Z,32.62
2022-08-23T12:17:16.945Z,32.85
2022-08-23T12:19:56.380Z,32.91
2022-08-23T12:22:29.963Z,32.76
2022-08-23T12:25:08.383Z,33.09
2022-08-23T12:27:52.759Z,32.69
2022-08-23T12:30:31.812Z,32.47
2022-08-23T12:33:42.019Z,31.89
2022-08-23T12:36:46.180Z,31.48
2022-08-23T12:39:34.852Z,31.09
2022-08-23T12:42:15.850Z,31.80
2022-08-23T12:45:02.784Z,31.73
2022-08-23T12:47:29.950Z,31.24
2022-08-23T12:50:15.130Z,31.28
2022-08-23T12:52:42.599Z,31.23
2022-08-23T12:55:18.612Z,31.60
2022-08-23T12:57:56.476Z,31.48
2022-08-23T13:00:25.710Z,31.53
2022-08-23T13:03:06.073Z,31.61
2022-08-23T13:06:02.065Z,31.59
2022-08-23T13:08:52.691Z,31.26
2022-08-23T13:11:23.455Z,31.19
2022-08-23T13:13:50.475Z,31.51
2022-08-23T13:16:47.266Z,31.93
2022-08-23T13:19:24.071Z,32.53
2022-08-23T13:22:32.066Z,32.78
2022-08-23T13:25:28.009Z,32.65
2022-08-23T13:28:19.283Z,32.57
2022-08-23T13:31:05.562Z,32.79
2022-08-23T13:33:32.761Z,32.83
2022-08-23T13:36:13.675Z,32.92
2022-08-23T13:38:43.439Z,32.85
2022-08-23T13:41:27.414Z,32.91
2022-08-23T13:43:55.007Z,33.23
2022-08-23T13:46:29.356Z,33.38
2022-08-23T13:49:06.016Z,33.44
2022-08-23T13:51:39.381Z,32.98
2022-08-23T13:54:13.532Z,33.01
2022-08-23T13:56:55.635Z,33.49
2022-08-23T13:59:36.508Z,33.61
2022-08-23T14:02:14.265Z,33.53
2022-08-23T14:04:42.776Z,33.27
2022-08-23T14:07:10.872Z,33.31
2022-08-23T14:09:39.439Z,32.96
2022-08-23T14:12:13.483Z,32.71
2022-08-23T14:14:41.249Z,32.21
2022-08-23T14:17:10.663Z,31.87
2022-08-23T14:20:51.400Z,32.27
2022-08-23T14:22:27.691Z,32.40
2022-08-23T14:24:54.739Z,32.98
2022-08-23T14:27:21.780Z,33.23
2022-08-23T14:29:48.771Z,33.41
2022-08-23T14:32:15.759Z,33.45
2022-08-23T14:34:42.798Z,32.76
2022-08-23T14:39:56.963Z,32.24
2022-08-23T14:42:24.387Z,31.73
2022-08-23T14:44:51.456Z,32.07
2022-08-23T14:47:19.079Z,32.29
2022-08-23T14:49:46.173Z,32.35
2022-08-23T14:52:15.056Z,32.30
2022-08-23T14:54:42.295Z,32.25
2022-08-23T14:57:09.427Z,32.43
2022-08-23T14:59:36.547Z,32.83
2022-08-23T15:02:05.123Z,33.05
2022-08-23T15:04:34.443Z,33.02
2022-08-23T15:07:19.590Z,32.04
2022-08-23T15:09:49.842Z,31.98
2022-08-23T15:15:12.690Z,33.11
2022-08-23T15:17:52.368Z,33.25
2022-08-23T15:20:22.997Z,33.42
2022-08-23T15:23:05.362Z,33.42
2022-08-23T15:25:35.875Z,33.30
2022-08-23T15:28:08.514Z,33.32
2022-08-23T15:30:37.857Z,32.97
2022-08-23T15:33:07.037Z,32.88
2022-08-23T15:35:44.018Z,33.15
2022-08-23T15:38:14.507Z,32.85
2022-08-23T15:40:42.022Z,33.20
2022-08-23T15:43:09.146Z,33.38
2022-08-23T15:45:37.400Z,32.51
2022-08-23T15:48:16.441Z,32.52
2022-08-23T15:50:46.690Z,32.39
2022-08-23T15:53:15.407Z,32.21
2022-08-23T15:55:43.607Z,31.92
2022-08-23T15:58:31.902Z,31.88
2022-08-23T16:00:58.838Z,31.92
2022-08-23T16:03:25.970Z,31.95
2022-08-23T16:05:54.168Z,31.60
2022-08-23T16:08:27.423Z,31.79
2022-08-23T16:10:55.562Z,32.08
2022-08-23T16:13:24.932Z,32.42
2022-08-23T16:15:52.801Z,32.67
2022-08-23T16:18:19.948Z,32.66
2022-08-23T16:20:46.952Z,32.06
2022-08-23T16:23:13.976Z,32.34
2022-08-23T16:25:41.713Z,32.32
2022-08-23T16:28:08.899Z,32.32
2022-08-23T16:30:36.388Z,32.02
2022-08-23T16:33:04.144Z,31.95
2022-08-23T16:35:31.287Z,32.09
2022-08-23T16:37:58.372Z,32.16
2022-08-23T16:40:25.548Z,32.12
2022-08-23T16:42:52.812Z,31.86
2022-08-23T16:45:26.112Z,31.86
2022-08-23T16:47:53.672Z,32.14
2022-08-23T16:50:20.860Z,32.28
2022-08-23T16:52:47.765Z,32.30
2022-08-23T16:55:14.716Z,31.81
2022-08-23T16:57:42.119Z,31.83
2022-08-23T17:00:13.087Z,31.84
2022-08-23T17:02:40.957Z,31.56
2022-08-23T17:05:13.725Z,31.26
2022-08-23T17:07:40.676Z,31.14
2022-08-23T17:10:10.315Z,31.36
2022-08-23T17:12:41.551Z,31.37
2022-08-23T17:15:20.684Z,31.30
2022-08-23T17:17:48.530Z,31.30
2022-08-23T17:20:16.617Z,31.17
2022-08-23T17:22:43.581Z,30.87
2022-08-23T17:25:11.861Z,30.67
2022-08-23T17:27:45.469Z,30.64
2022-08-23T17:30:16.845Z,30.69
2022-08-23T17:32:47.684Z,30.46
2022-08-23T17:35:18.856Z,30.28
2022-08-23T17:37:50.900Z,30.29
2022-08-23T17:40:28.938Z,30.33
2022-08-23T17:42:57.136Z,30.19
2022-08-23T17:45:24.393Z,30.00
2022-08-23T17:47:51.399Z,29.69
2022-08-23T17:50:20.155Z,29.62
2022-08-23T17:52:47.132Z,29.58
2022-08-23T17:55:17.312Z,29.50
2022-08-23T17:57:47.256Z,29.26
2022-08-23T18:00:18.073Z,29.05
2022-08-23T18:02:45.119Z,28.98
2022-08-23T18:05:12.460Z,29.04
2022-08-23T18:07:40.027Z,28.97
2022-08-23T18:10:08.898Z,28.57
2022-08-23T18:12:36.003Z,28.25
2022-08-23T18:15:04.063Z,27.85
2022-08-23T18:17:32.629Z,27.67
2022-08-23T18:20:00.379Z,27.34
2022-08-23T18:22:27.826Z,27.05
2022-08-23T18:24:54.858Z,27.04
2022-08-23T18:27:40.534Z,26.96
2022-08-23T18:30:09.940Z,26.97
2022-08-23T18:32:37.286Z,26.92
2022-08-23T18:35:05.616Z,27.05
2022-08-23T18:37:32.626Z,27.11
2022-08-23T18:39:59.693Z,26.91
2022-08-23T18:42:26.937Z,26.68
2022-08-23T18:44:54.153Z,26.43
2022-08-23T18:47:21.308Z,26.16
2022-08-23T18:49:48.664Z,25.95
2022-08-23T18:52:15.964Z,25.82
2022-08-23T18:54:43.063Z,25.75
2022-08-23T18:57:15.989Z,25.51
2022-08-23T18:59:44.339Z,25.56
2022-08-23T19:02:11.552Z,25.50
2022-08-23T19:04:39.065Z,25.39
2022-08-23T19:07:06.013Z,25.47
2022-08-23T19:09:33.117Z,25.45
2022-08-23T19:12:00.907Z,25.38
2022-08-23T19:14:28.600Z,25.34
2022-08-23T19:16:55.837Z,25.37
2022-08-23T19:19:23.777Z,25.21
2022-08-23T19:21:50.890Z,25.21
2022-08-23T19:24:17.923Z,24.94
2022-08-23T19:26:47.468Z,24.84
2022-08-23T19:29:16.115Z,24.74
2022-08-23T19:31:46.642Z,24.68
2022-08-23T19:34:16.747Z,24.65
2022-08-23T19:36:48.094Z,24.86
2022-08-23T19:39:18.618Z,24.20
2022-08-23T19:41:47.235Z,23.55
2022-08-23T19:44:17.591Z,23.46
2022-08-23T19:46:45.603Z,23.75
2022-08-23T19:49:15.494Z,23.99
2022-08-23T19:51:43.795Z,24.18
2022-08-23T19:54:12.778Z,24.39
2022-08-23T19:56:49.791Z,24.39
2022-08-23T19:59:30.365Z,24.36
2022-08-23T20:01:59.181Z,24.26
2022-08-23T20:04:29.808Z,24.22
2022-08-23T20:06:58.372Z,24.06
2022-08-23T20:09:29.015Z,23.84
2022-08-23T20:11:57.299Z,23.36
2022-08-23T20:14:26.679Z,23.27
2022-08-23T20:16:54.672Z,23.01
2022-08-23T20:19:22.142Z,22.76
2022-08-23T20:21:49.365Z,22.58
2022-08-23T20:24:22.825Z,22.43
2022-08-23T20:26:59.691Z,22.71
2022-08-23T20:29:26.747Z,22.41
2022-08-23T20:31:59.632Z,22.61
2022-08-23T20:34:28.338Z,22.44
2022-08-23T20:36:56.268Z,22.11
2022-08-23T20:39:24.763Z,21.90
2022-08-23T20:41:53.476Z,21.88
2022-08-23T20:44:22.757Z,21.88
2022-08-23T20:46:54.188Z,22.04
2022-08-23T20:49:23.607Z,22.16
2022-08-23T20:51:51.367Z,22.34
2022-08-23T20:54:18.922Z,22.40
2022-08-23T20:56:46.166Z,22.66
2022-08-23T20:59:14.733Z,22.76
2022-08-23T21:01:41.931Z,22.86
2022-08-23T21:04:09.168Z,22.77
2022-08-23T21:06:54.388Z,22.73
2022-08-23T21:09:27.457Z,22.57
2022-08-23T21:11:57.054Z,22.45
2022-08-23T21:14:24.390Z,22.46
2022-08-23T21:16:52.115Z,22.40
2022-08-23T21:19:19.403Z,22.37
2022-08-23T21:21:47.066Z,22.14
2022-08-23T21:24:15.230Z,22.05
2022-08-23T21:26:42.804Z,22.09
2022-08-23T21:29:11.128Z,21.94
2022-08-23T21:31:38.907Z,21.69
2022-08-23T21:34:07.474Z,21.51
2022-08-23T21:36:35.732Z,20.93
2022-08-23T21:39:03.150Z,20.57
2022-08-23T21:41:41.585Z,20.40
2022-08-23T21:44:13.338Z,20.15
2022-08-23T21:46:41.105Z,20.02
2022-08-23T21:49:08.703Z,19.74
2022-08-23T21:51:39.823Z,19.90
2022-08-23T21:54:09.037Z,20.05
2022-08-23T21:56:37.137Z,20.02
2022-08-23T21:59:12.343Z,20.20
2022-08-23T22:01:41.526Z,20.14
2022-08-23T22:04:13.031Z,20.27
2022-08-23T22:06:43.417Z,20.32
2022-08-23T22:09:15.638Z,20.67
2022-08-23T22:11:46.300Z,20.68
2022-08-23T22:14:18.344Z,20.59
2022-08-23T22:16:45.327Z,20.32
2022-08-23T22:19:14.247Z,20.12
2022-08-23T22:21:42.583Z,19.99
2022-08-23T22:24:13.161Z,20.04
2022-08-23T22:26:42.727Z,20.04
2022-08-23T22:29:11.507Z,19.95
2022-08-23T22:31:39.795Z,19.82
2022-08-23T22:34:09.279Z,19.76
2022-08-23T22:36:37.031Z,19.86
2022-08-23T22:39:04.953Z,19.88
2022-08-23T22:41:32.413Z,19.83
2022-08-23T22:44:01.669Z,19.88
2022-08-23T22:46:31.392Z,19.79
2022-08-23T22:48:59.214Z,19.76
2022-08-23T22:51:33.860Z,20.00
2022-08-23T22:54:10.563Z,20.27
2022-08-23T22:56:45.742Z,20.14
2022-08-23T22:59:16.130Z,20.01
2022-08-23T23:01:48.776Z,20.20
2022-08-23T23:04:18.036Z,20.33
2022-08-23T23:06:46.795Z,20.28
2022-08-23T23:09:14.379Z,20.35
2022-08-23T23:11:42.719Z,19.99
2022-08-23T23:14:11.296Z,20.22
2022-08-23T23:16:39.462Z,20.44
2022-08-23T23:19:25.157Z,20.41
2022-08-23T23:21:55.681Z,20.23
2022-08-23T23:24:37.606Z,19.60
2022-08-23T23:27:05.432Z,19.47
2022-08-23T23:29:33.213Z,19.36
2022-08-23T23:32:00.604Z,19.41
2022-08-23T23:34:28.363Z,19.52
2022-08-23T23:36:57.817Z,19.54
2022-08-23T23:39:26.741Z,19.54
2022-08-23T23:41:54.779Z,19.21
2022-08-23T23:44:30.834Z,18.92
2022-08-23T23:47:00.892Z,19.19
2022-08-23T23:49:32.215Z,19.47
2022-08-23T23:52:05.070Z,19.55
2022-08-23T23:54:33.982Z,19.31
2022-08-23T23:57:01.746Z,19.37
2022-08-23T23:59:28.943Z,19.54
